sensor_id;sensor_type;location;lat;lon;timestamp;P1;durP1;ratioP1;P2;durP2;ratioP2
35150;SDS011;55720;51.972;4.624;2023-02-17T00:01:48;45.17;;;18.67;;
35150;SDS011;55720;51.972;4.624;2023-02-17T00:04:14;50.22;;;17.98;;
35150;SDS011;55720;51.972;4.624;2023-02-17T00:06:39;44.75;;;17.92;;
35150;SDS011;55720;51.972;4.624;2023-02-17T00:09:04;46.40;;;18.50;;
35150;SDS011;55720;51.972;4.624;2023-02-17T00:11:30;45.92;;;18.23;;
35150;SDS011;55720;51.972;4.624;2023-02-17T00:13:55;48.88;;;17.95;;
35150;SDS011;55720;51.972;4.624;2023-02-17T00:16:21;50.42;;;18.70;;
35150;SDS011;55720;51.972;4.624;2023-02-17T00:18:53;54.22;;;17.75;;
35150;SDS011;55720;51.972;4.624;2023-02-17T00:21:21;51.28;;;17.10;;
35150;SDS011;55720;51.972;4.624;2023-02-17T00:23:48;56.50;;;17.30;;
35150;SDS011;55720;51.972;4.624;2023-02-17T00:26:15;50.95;;;16.25;;
35150;SDS011;55720;51.972;4.624;2023-02-17T00:28:41;48.25;;;15.77;;
35150;SDS011;55720;51.972;4.624;2023-02-17T00:31:26;50.00;;;15.63;;
35150;SDS011;55720;51.972;4.624;2023-02-17T00:33:54;54.65;;;16.10;;
35150;SDS011;55720;51.972;4.624;2023-02-17T00:36:20;52.33;;;16.35;;
35150;SDS011;55720;51.972;4.624;2023-02-17T00:38:46;52.10;;;17.95;;
35150;SDS011;55720;51.972;4.624;2023-02-17T00:41:12;59.53;;;17.35;;
35150;SDS011;55720;51.972;4.624;2023-02-17T00:43:38;55.60;;;17.80;;
35150;SDS011;55720;51.972;4.624;2023-02-17T00:46:03;57.00;;;18.13;;
35150;SDS011;55720;51.972;4.624;2023-02-17T00:48:29;59.38;;;18.58;;
35150;SDS011;55720;51.972;4.624;2023-02-17T00:50:55;61.72;;;17.83;;
35150;SDS011;55720;51.972;4.624;2023-02-17T00:53:20;56.35;;;18.63;;
35150;SDS011;55720;51.972;4.624;2023-02-17T00:55:46;56.40;;;17.45;;
35150;SDS011;55720;51.972;4.624;2023-02-17T00:58:12;50.70;;;15.65;;
35150;SDS011;55720;51.972;4.624;2023-02-17T01:00:38;46.63;;;16.38;;
35150;SDS011;55720;51.972;4.624;2023-02-17T01:03:03;67.30;;;19.88;;
35150;SDS011;55720;51.972;4.624;2023-02-17T01:05:29;51.00;;;18.10;;
35150;SDS011;55720;51.972;4.624;2023-02-17T01:07:54;53.10;;;17.90;;
35150;SDS011;55720;51.972;4.624;2023-02-17T01:10:20;46.20;;;17.60;;
35150;SDS011;55720;51.972;4.624;2023-02-17T01:12:45;53.50;;;18.10;;
35150;SDS011;55720;51.972;4.624;2023-02-17T01:15:11;56.65;;;18.85;;
35150;SDS011;55720;51.972;4.624;2023-02-17T01:17:37;56.40;;;19.27;;
35150;SDS011;55720;51.972;4.624;2023-02-17T01:20:02;53.50;;;17.30;;
35150;SDS011;55720;51.972;4.624;2023-02-17T01:22:28;52.75;;;18.33;;
35150;SDS011;55720;51.972;4.624;2023-02-17T01:24:54;63.25;;;19.42;;
35150;SDS011;55720;51.972;4.624;2023-02-17T01:27:19;57.55;;;18.63;;
35150;SDS011;55720;51.972;4.624;2023-02-17T01:29:44;62.30;;;18.52;;
35150;SDS011;55720;51.972;4.624;2023-02-17T01:32:10;52.33;;;17.80;;
35150;SDS011;55720;51.972;4.624;2023-02-17T01:34:36;53.67;;;17.90;;
35150;SDS011;55720;51.972;4.624;2023-02-17T01:37:02;52.30;;;17.77;;
35150;SDS011;55720;51.972;4.624;2023-02-17T01:39:27;49.95;;;17.23;;
35150;SDS011;55720;51.972;4.624;2023-02-17T01:41:53;47.80;;;17.10;;
35150;SDS011;55720;51.972;4.624;2023-02-17T01:44:19;53.58;;;18.05;;
35150;SDS011;55720;51.972;4.624;2023-02-17T01:46:48;49.88;;;17.58;;
35150;SDS011;55720;51.972;4.624;2023-02-17T01:49:37;49.33;;;16.63;;
35150;SDS011;55720;51.972;4.624;2023-02-17T01:54:51;37.95;;;14.40;;
35150;SDS011;55720;51.972;4.624;2023-02-17T01:57:24;47.35;;;16.40;;
35150;SDS011;55720;51.972;4.624;2023-02-17T01:59:52;48.47;;;16.70;;
35150;SDS011;55720;51.972;4.624;2023-02-17T02:02:18;40.35;;;14.55;;
35150;SDS011;55720;51.972;4.624;2023-02-17T02:05:03;49.25;;;15.93;;
35150;SDS011;55720;51.972;4.624;2023-02-17T02:07:31;41.22;;;15.27;;
35150;SDS011;55720;51.972;4.624;2023-02-17T02:10:03;50.28;;;15.25;;
35150;SDS011;55720;51.972;4.624;2023-02-17T02:12:32;42.03;;;14.88;;
35150;SDS011;55720;51.972;4.624;2023-02-17T02:32:25;42.15;;;14.68;;
35150;SDS011;55720;51.972;4.624;2023-02-17T02:38:14;47.83;;;14.40;;
35150;SDS011;55720;51.972;4.624;2023-02-17T02:40:48;42.90;;;14.00;;
35150;SDS011;55720;51.972;4.624;2023-02-17T02:43:19;42.70;;;13.68;;
35150;SDS011;55720;51.972;4.624;2023-02-17T02:45:45;38.50;;;12.45;;
35150;SDS011;55720;51.972;4.624;2023-02-17T02:48:11;39.70;;;13.32;;
35150;SDS011;55720;51.972;4.624;2023-02-17T03:03:36;35.08;;;13.68;;
35150;SDS011;55720;51.972;4.624;2023-02-17T03:09:19;48.13;;;15.63;;
35150;SDS011;55720;51.972;4.624;2023-02-17T03:11:47;46.28;;;16.45;;
35150;SDS011;55720;51.972;4.624;2023-02-17T03:14:16;46.50;;;15.93;;
35150;SDS011;55720;51.972;4.624;2023-02-17T03:16:43;48.38;;;16.05;;
35150;SDS011;55720;51.972;4.624;2023-02-17T03:19:11;48.85;;;16.77;;
35150;SDS011;55720;51.972;4.624;2023-02-17T03:21:43;48.08;;;16.65;;
35150;SDS011;55720;51.972;4.624;2023-02-17T03:24:13;54.15;;;18.70;;
35150;SDS011;55720;51.972;4.624;2023-02-17T03:26:40;57.97;;;20.58;;
35150;SDS011;55720;51.972;4.624;2023-02-17T03:29:05;59.95;;;22.35;;
35150;SDS011;55720;51.972;4.624;2023-02-17T03:31:30;61.25;;;21.90;;
35150;SDS011;55720;51.972;4.624;2023-02-17T03:33:56;55.83;;;22.27;;
35150;SDS011;55720;51.972;4.624;2023-02-17T03:36:22;66.60;;;24.60;;
35150;SDS011;55720;51.972;4.624;2023-02-17T03:38:47;66.57;;;25.42;;
35150;SDS011;55720;51.972;4.624;2023-02-17T03:41:13;67.10;;;24.98;;
35150;SDS011;55720;51.972;4.624;2023-02-17T03:43:38;62.50;;;24.48;;
35150;SDS011;55720;51.972;4.624;2023-02-17T03:46:03;55.78;;;22.85;;
35150;SDS011;55720;51.972;4.624;2023-02-17T03:48:29;60.72;;;22.70;;
35150;SDS011;55720;51.972;4.624;2023-02-17T03:50:54;53.35;;;21.45;;
35150;SDS011;55720;51.972;4.624;2023-02-17T03:53:20;48.97;;;21.35;;
35150;SDS011;55720;51.972;4.624;2023-02-17T03:55:45;51.05;;;20.58;;
35150;SDS011;55720;51.972;4.624;2023-02-17T03:58:10;45.22;;;18.65;;
35150;SDS011;55720;51.972;4.624;2023-02-17T04:00:36;43.35;;;18.83;;
35150;SDS011;55720;51.972;4.624;2023-02-17T04:03:02;41.10;;;18.60;;
35150;SDS011;55720;51.972;4.624;2023-02-17T04:05:27;43.40;;;18.58;;
35150;SDS011;55720;51.972;4.624;2023-02-17T04:07:52;40.35;;;18.00;;
35150;SDS011;55720;51.972;4.624;2023-02-17T04:10:18;45.28;;;17.40;;
35150;SDS011;55720;51.972;4.624;2023-02-17T04:12:43;41.72;;;17.50;;
35150;SDS011;55720;51.972;4.624;2023-02-17T04:15:08;43.28;;;18.15;;
35150;SDS011;55720;51.972;4.624;2023-02-17T04:17:35;38.80;;;17.08;;
35150;SDS011;55720;51.972;4.624;2023-02-17T04:20:02;46.45;;;19.45;;
35150;SDS011;55720;51.972;4.624;2023-02-17T04:22:27;43.45;;;18.48;;
35150;SDS011;55720;51.972;4.624;2023-02-17T04:24:53;46.08;;;20.17;;
35150;SDS011;55720;51.972;4.624;2023-02-17T04:27:18;50.88;;;21.25;;
35150;SDS011;55720;51.972;4.624;2023-02-17T04:29:43;51.13;;;21.33;;
35150;SDS011;55720;51.972;4.624;2023-02-17T04:32:09;56.35;;;21.75;;
35150;SDS011;55720;51.972;4.624;2023-02-17T04:34:34;52.00;;;22.67;;
35150;SDS011;55720;51.972;4.624;2023-02-17T04:36:59;56.60;;;22.98;;
35150;SDS011;55720;51.972;4.624;2023-02-17T04:39:25;58.70;;;22.55;;
35150;SDS011;55720;51.972;4.624;2023-02-17T04:41:50;59.55;;;22.17;;
35150;SDS011;55720;51.972;4.624;2023-02-17T04:44:15;67.03;;;24.00;;
35150;SDS011;55720;51.972;4.624;2023-02-17T04:46:41;52.38;;;22.10;;
35150;SDS011;55720;51.972;4.624;2023-02-17T04:49:06;48.67;;;20.77;;
35150;SDS011;55720;51.972;4.624;2023-02-17T04:51:31;59.80;;;22.20;;
35150;SDS011;55720;51.972;4.624;2023-02-17T04:53:57;54.70;;;22.55;;
35150;SDS011;55720;51.972;4.624;2023-02-17T04:56:28;58.67;;;21.77;;
35150;SDS011;55720;51.972;4.624;2023-02-17T04:58:53;61.13;;;22.85;;
35150;SDS011;55720;51.972;4.624;2023-02-17T05:01:19;55.08;;;22.67;;
35150;SDS011;55720;51.972;4.624;2023-02-17T05:03:44;54.25;;;21.20;;
35150;SDS011;55720;51.972;4.624;2023-02-17T05:06:09;58.78;;;22.50;;
35150;SDS011;55720;51.972;4.624;2023-02-17T05:08:35;61.42;;;23.00;;
35150;SDS011;55720;51.972;4.624;2023-02-17T05:11:00;58.83;;;24.10;;
35150;SDS011;55720;51.972;4.624;2023-02-17T05:13:25;61.40;;;22.80;;
35150;SDS011;55720;51.972;4.624;2023-02-17T05:15:51;54.35;;;22.25;;
35150;SDS011;55720;51.972;4.624;2023-02-17T05:18:17;63.03;;;24.60;;
35150;SDS011;55720;51.972;4.624;2023-02-17T05:20:42;66.65;;;23.58;;
35150;SDS011;55720;51.972;4.624;2023-02-17T05:23:08;67.10;;;24.75;;
35150;SDS011;55720;51.972;4.624;2023-02-17T05:25:33;58.45;;;20.85;;
35150;SDS011;55720;51.972;4.624;2023-02-17T05:27:58;58.90;;;23.92;;
35150;SDS011;55720;51.972;4.624;2023-02-17T05:30:24;68.25;;;24.33;;
35150;SDS011;55720;51.972;4.624;2023-02-17T05:32:49;61.85;;;23.20;;
35150;SDS011;55720;51.972;4.624;2023-02-17T05:35:14;56.92;;;21.48;;
35150;SDS011;55720;51.972;4.624;2023-02-17T05:37:40;52.00;;;21.42;;
35150;SDS011;55720;51.972;4.624;2023-02-17T05:40:05;51.33;;;21.27;;
35150;SDS011;55720;51.972;4.624;2023-02-17T05:42:31;61.92;;;21.38;;
35150;SDS011;55720;51.972;4.624;2023-02-17T05:44:57;54.63;;;19.65;;
35150;SDS011;55720;51.972;4.624;2023-02-17T05:47:22;56.03;;;19.10;;
35150;SDS011;55720;51.972;4.624;2023-02-17T05:49:48;45.63;;;19.02;;
35150;SDS011;55720;51.972;4.624;2023-02-17T05:52:13;48.60;;;16.88;;
35150;SDS011;55720;51.972;4.624;2023-02-17T05:54:39;48.83;;;17.25;;
35150;SDS011;55720;51.972;4.624;2023-02-17T05:57:04;55.25;;;16.42;;
35150;SDS011;55720;51.972;4.624;2023-02-17T05:59:30;43.13;;;16.13;;
35150;SDS011;55720;51.972;4.624;2023-02-17T06:01:55;43.85;;;15.48;;
35150;SDS011;55720;51.972;4.624;2023-02-17T06:04:20;42.58;;;16.05;;
35150;SDS011;55720;51.972;4.624;2023-02-17T06:06:46;38.83;;;15.27;;
35150;SDS011;55720;51.972;4.624;2023-02-17T06:09:11;40.35;;;15.57;;
35150;SDS011;55720;51.972;4.624;2023-02-17T06:11:37;42.22;;;16.30;;
35150;SDS011;55720;51.972;4.624;2023-02-17T06:14:02;42.72;;;15.10;;
35150;SDS011;55720;51.972;4.624;2023-02-17T06:16:28;47.22;;;16.08;;
35150;SDS011;55720;51.972;4.624;2023-02-17T06:18:53;39.65;;;15.82;;
35150;SDS011;55720;51.972;4.624;2023-02-17T06:21:19;40.80;;;15.98;;
35150;SDS011;55720;51.972;4.624;2023-02-17T06:23:44;41.08;;;15.82;;
35150;SDS011;55720;51.972;4.624;2023-02-17T06:26:10;37.13;;;15.32;;
35150;SDS011;55720;51.972;4.624;2023-02-17T06:28:36;41.03;;;16.05;;
35150;SDS011;55720;51.972;4.624;2023-02-17T06:31:01;33.05;;;14.20;;
35150;SDS011;55720;51.972;4.624;2023-02-17T06:33:27;36.58;;;15.52;;
35150;SDS011;55720;51.972;4.624;2023-02-17T06:35:52;34.78;;;13.52;;
35150;SDS011;55720;51.972;4.624;2023-02-17T06:38:18;32.63;;;13.93;;
35150;SDS011;55720;51.972;4.624;2023-02-17T06:40:43;36.78;;;15.20;;
35150;SDS011;55720;51.972;4.624;2023-02-17T06:43:09;32.40;;;13.05;;
35150;SDS011;55720;51.972;4.624;2023-02-17T06:45:34;35.97;;;14.95;;
35150;SDS011;55720;51.972;4.624;2023-02-17T06:47:59;34.75;;;14.30;;
35150;SDS011;55720;51.972;4.624;2023-02-17T06:50:25;34.15;;;13.77;;
35150;SDS011;55720;51.972;4.624;2023-02-17T06:52:50;33.75;;;13.52;;
35150;SDS011;55720;51.972;4.624;2023-02-17T06:55:16;36.15;;;15.10;;
35150;SDS011;55720;51.972;4.624;2023-02-17T06:57:41;35.60;;;14.68;;
35150;SDS011;55720;51.972;4.624;2023-02-17T07:00:07;37.22;;;15.30;;
35150;SDS011;55720;51.972;4.624;2023-02-17T07:03:07;35.40;;;14.32;;
35150;SDS011;55720;51.972;4.624;2023-02-17T07:06:34;33.38;;;14.95;;
35150;SDS011;55720;51.972;4.624;2023-02-17T07:09:00;33.10;;;15.05;;
35150;SDS011;55720;51.972;4.624;2023-02-17T07:11:28;32.40;;;15.23;;
35150;SDS011;55720;51.972;4.624;2023-02-17T07:13:55;36.65;;;14.77;;
35150;SDS011;55720;51.972;4.624;2023-02-17T07:16:21;33.03;;;16.65;;
35150;SDS011;55720;51.972;4.624;2023-02-17T07:18:46;31.33;;;16.08;;
35150;SDS011;55720;51.972;4.624;2023-02-17T07:21:12;40.38;;;17.38;;
35150;SDS011;55720;51.972;4.624;2023-02-17T07:23:37;31.95;;;15.80;;
35150;SDS011;55720;51.972;4.624;2023-02-17T07:26:04;29.15;;;15.77;;
35150;SDS011;55720;51.972;4.624;2023-02-17T07:28:33;34.17;;;15.45;;
35150;SDS011;55720;51.972;4.624;2023-02-17T07:31:09;30.45;;;15.88;;
35150;SDS011;55720;51.972;4.624;2023-02-17T07:33:37;30.70;;;15.63;;
35150;SDS011;55720;51.972;4.624;2023-02-17T07:36:12;30.45;;;15.13;;
35150;SDS011;55720;51.972;4.624;2023-02-17T07:38:41;34.40;;;15.60;;
35150;SDS011;55720;51.972;4.624;2023-02-17T07:41:08;33.08;;;16.02;;
35150;SDS011;55720;51.972;4.624;2023-02-17T07:43:35;35.55;;;15.32;;
35150;SDS011;55720;51.972;4.624;2023-02-17T07:46:01;29.95;;;16.23;;
35150;SDS011;55720;51.972;4.624;2023-02-17T07:48:26;34.85;;;17.45;;
35150;SDS011;55720;51.972;4.624;2023-02-17T07:50:52;35.13;;;17.30;;
35150;SDS011;55720;51.972;4.624;2023-02-17T07:53:17;27.67;;;15.35;;
35150;SDS011;55720;51.972;4.624;2023-02-17T07:55:43;36.88;;;15.55;;
35150;SDS011;55720;51.972;4.624;2023-02-17T07:58:08;30.55;;;14.75;;
35150;SDS011;55720;51.972;4.624;2023-02-17T08:00:34;28.67;;;14.95;;
35150;SDS011;55720;51.972;4.624;2023-02-17T08:02:59;34.13;;;14.82;;
35150;SDS011;55720;51.972;4.624;2023-02-17T08:05:24;36.25;;;15.88;;
35150;SDS011;55720;51.972;4.624;2023-02-17T08:07:50;34.80;;;16.45;;
35150;SDS011;55720;51.972;4.624;2023-02-17T08:10:38;36.83;;;15.68;;
35150;SDS011;55720;51.972;4.624;2023-02-17T08:13:23;29.33;;;15.98;;
35150;SDS011;55720;51.972;4.624;2023-02-17T08:15:50;33.67;;;16.40;;
35150;SDS011;55720;51.972;4.624;2023-02-17T08:18:16;31.75;;;17.25;;
35150;SDS011;55720;51.972;4.624;2023-02-17T08:20:41;38.92;;;18.88;;
35150;SDS011;55720;51.972;4.624;2023-02-17T08:23:06;38.03;;;19.55;;
35150;SDS011;55720;51.972;4.624;2023-02-17T08:25:33;38.95;;;20.13;;
35150;SDS011;55720;51.972;4.624;2023-02-17T08:28:00;39.55;;;20.25;;
35150;SDS011;55720;51.972;4.624;2023-02-17T08:30:26;39.40;;;19.10;;
35150;SDS011;55720;51.972;4.624;2023-02-17T08:32:52;34.75;;;17.98;;
35150;SDS011;55720;51.972;4.624;2023-02-17T08:35:17;34.05;;;18.92;;
35150;SDS011;55720;51.972;4.624;2023-02-17T08:37:47;34.17;;;17.75;;
35150;SDS011;55720;51.972;4.624;2023-02-17T08:40:15;32.60;;;17.20;;
35150;SDS011;55720;51.972;4.624;2023-02-17T08:42:42;30.33;;;16.23;;
35150;SDS011;55720;51.972;4.624;2023-02-17T08:45:07;31.48;;;14.88;;
35150;SDS011;55720;51.972;4.624;2023-02-17T08:47:34;32.85;;;18.13;;
35150;SDS011;55720;51.972;4.624;2023-02-17T08:50:00;32.63;;;16.23;;
35150;SDS011;55720;51.972;4.624;2023-02-17T08:52:28;31.15;;;16.55;;
35150;SDS011;55720;51.972;4.624;2023-02-17T08:54:53;34.13;;;16.65;;
35150;SDS011;55720;51.972;4.624;2023-02-17T08:57:19;30.52;;;16.27;;
35150;SDS011;55720;51.972;4.624;2023-02-17T08:59:45;29.58;;;14.35;;
35150;SDS011;55720;51.972;4.624;2023-02-17T09:02:16;34.55;;;15.38;;
35150;SDS011;55720;51.972;4.624;2023-02-17T09:04:41;23.13;;;13.75;;
35150;SDS011;55720;51.972;4.624;2023-02-17T09:07:11;28.35;;;14.98;;
35150;SDS011;55720;51.972;4.624;2023-02-17T09:09:38;24.67;;;15.35;;
35150;SDS011;55720;51.972;4.624;2023-02-17T09:12:06;30.30;;;15.25;;
35150;SDS011;55720;51.972;4.624;2023-02-17T09:14:32;29.17;;;13.90;;
35150;SDS011;55720;51.972;4.624;2023-02-17T09:16:57;23.52;;;13.10;;
35150;SDS011;55720;51.972;4.624;2023-02-17T09:19:30;29.50;;;15.73;;
35150;SDS011;55720;51.972;4.624;2023-02-17T09:22:01;26.77;;;15.07;;
35150;SDS011;55720;51.972;4.624;2023-02-17T09:24:29;28.75;;;15.68;;
35150;SDS011;55720;51.972;4.624;2023-02-17T09:26:57;31.48;;;14.75;;
35150;SDS011;55720;51.972;4.624;2023-02-17T09:29:22;28.42;;;15.35;;
35150;SDS011;55720;51.972;4.624;2023-02-17T09:31:54;34.80;;;15.73;;
35150;SDS011;55720;51.972;4.624;2023-02-17T09:34:25;34.03;;;15.07;;
35150;SDS011;55720;51.972;4.624;2023-02-17T09:36:54;30.55;;;14.35;;
35150;SDS011;55720;51.972;4.624;2023-02-17T09:39:20;21.17;;;12.80;;
35150;SDS011;55720;51.972;4.624;2023-02-17T09:41:49;21.33;;;11.20;;
35150;SDS011;55720;51.972;4.624;2023-02-17T09:44:18;20.42;;;11.90;;
35150;SDS011;55720;51.972;4.624;2023-02-17T09:46:56;22.33;;;10.05;;
35150;SDS011;55720;51.972;4.624;2023-02-17T09:49:34;15.50;;;9.73;;
35150;SDS011;55720;51.972;4.624;2023-02-17T09:54:34;19.95;;;9.63;;
35150;SDS011;55720;51.972;4.624;2023-02-17T09:57:04;18.52;;;9.05;;
35150;SDS011;55720;51.972;4.624;2023-02-17T09:59:34;23.55;;;11.00;;
35150;SDS011;55720;51.972;4.624;2023-02-17T10:02:17;18.60;;;9.38;;
35150;SDS011;55720;51.972;4.624;2023-02-17T10:04:51;17.13;;;9.82;;
35150;SDS011;55720;51.972;4.624;2023-02-17T10:07:26;16.80;;;9.30;;
35150;SDS011;55720;51.972;4.624;2023-02-17T10:09:56;18.35;;;11.05;;
35150;SDS011;55720;51.972;4.624;2023-02-17T10:12:48;19.38;;;12.07;;
35150;SDS011;55720;51.972;4.624;2023-02-17T10:15:22;21.88;;;12.77;;
35150;SDS011;55720;51.972;4.624;2023-02-17T10:20:48;22.98;;;13.20;;
35150;SDS011;55720;51.972;4.624;2023-02-17T10:23:27;25.98;;;14.05;;
35150;SDS011;55720;51.972;4.624;2023-02-17T10:31:12;27.33;;;13.63;;
35150;SDS011;55720;51.972;4.624;2023-02-17T10:36:47;24.52;;;11.80;;
35150;SDS011;55720;51.972;4.624;2023-02-17T10:39:54;21.27;;;12.68;;
35150;SDS011;55720;51.972;4.624;2023-02-17T10:42:35;22.98;;;12.15;;
35150;SDS011;55720;51.972;4.624;2023-02-17T10:45:09;21.33;;;11.88;;
35150;SDS011;55720;51.972;4.624;2023-02-17T10:47:36;22.33;;;12.20;;
35150;SDS011;55720;51.972;4.624;2023-02-17T10:50:18;25.15;;;13.07;;
35150;SDS011;55720;51.972;4.624;2023-02-17T10:58:18;22.45;;;13.15;;
35150;SDS011;55720;51.972;4.624;2023-02-17T11:00:51;29.10;;;13.43;;
35150;SDS011;55720;51.972;4.624;2023-02-17T11:03:18;28.30;;;13.88;;
35150;SDS011;55720;51.972;4.624;2023-02-17T11:05:51;22.08;;;12.73;;
35150;SDS011;55720;51.972;4.624;2023-02-17T11:11:05;22.92;;;11.20;;
35150;SDS011;55720;51.972;4.624;2023-02-17T11:16:40;19.60;;;10.05;;
35150;SDS011;55720;51.972;4.624;2023-02-17T11:19:22;19.98;;;9.98;;
35150;SDS011;55720;51.972;4.624;2023-02-17T11:21:50;25.80;;;9.75;;
35150;SDS011;55720;51.972;4.624;2023-02-17T11:24:17;24.05;;;9.73;;
35150;SDS011;55720;51.972;4.624;2023-02-17T11:26:53;20.65;;;9.57;;
35150;SDS011;55720;51.972;4.624;2023-02-17T11:29:38;20.85;;;9.13;;
35150;SDS011;55720;51.972;4.624;2023-02-17T11:32:05;25.42;;;8.95;;
35150;SDS011;55720;51.972;4.624;2023-02-17T11:34:36;19.65;;;8.43;;
35150;SDS011;55720;51.972;4.624;2023-02-17T11:39:41;21.33;;;8.77;;
35150;SDS011;55720;51.972;4.624;2023-02-17T11:42:30;17.88;;;9.30;;
35150;SDS011;55720;51.972;4.624;2023-02-17T11:45:18;24.67;;;8.60;;
35150;SDS011;55720;51.972;4.624;2023-02-17T11:47:50;22.45;;;9.23;;
35150;SDS011;55720;51.972;4.624;2023-02-17T11:53:50;17.92;;;9.27;;
35150;SDS011;55720;51.972;4.624;2023-02-17T11:56:29;20.42;;;8.70;;
35150;SDS011;55720;51.972;4.624;2023-02-17T12:04:41;26.33;;;8.57;;
35150;SDS011;55720;51.972;4.624;2023-02-17T12:09:47;21.77;;;7.65;;
35150;SDS011;55720;51.972;4.624;2023-02-17T12:20:51;21.02;;;6.63;;
35150;SDS011;55720;51.972;4.624;2023-02-17T12:26:42;16.00;;;5.47;;
35150;SDS011;55720;51.972;4.624;2023-02-17T12:37:22;12.25;;;4.75;;
35150;SDS011;55720;51.972;4.624;2023-02-17T12:39:51;14.75;;;4.93;;
35150;SDS011;55720;51.972;4.624;2023-02-17T12:42:19;10.98;;;4.78;;
35150;SDS011;55720;51.972;4.624;2023-02-17T12:45:37;10.55;;;3.70;;
35150;SDS011;55720;51.972;4.624;2023-02-17T12:48:01;14.63;;;4.10;;
35150;SDS011;55720;51.972;4.624;2023-02-17T12:50:37;11.93;;;4.80;;
35150;SDS011;55720;51.972;4.624;2023-02-17T12:53:16;13.68;;;4.35;;
35150;SDS011;55720;51.972;4.624;2023-02-17T12:55:54;14.65;;;4.72;;
35150;SDS011;55720;51.972;4.624;2023-02-17T12:58:29;15.63;;;4.53;;
35150;SDS011;55720;51.972;4.624;2023-02-17T13:01:16;10.95;;;4.55;;
35150;SDS011;55720;51.972;4.624;2023-02-17T13:03:43;14.15;;;5.10;;
35150;SDS011;55720;51.972;4.624;2023-02-17T13:08:54;17.80;;;5.43;;
35150;SDS011;55720;51.972;4.624;2023-02-17T13:11:32;10.38;;;4.75;;
35150;SDS011;55720;51.972;4.624;2023-02-17T13:14:19;15.63;;;4.90;;
35150;SDS011;55720;51.972;4.624;2023-02-17T13:16:50;10.95;;;4.80;;
35150;SDS011;55720;51.972;4.624;2023-02-17T13:19:20;18.33;;;4.88;;
35150;SDS011;55720;51.972;4.624;2023-02-17T13:21:53;11.30;;;4.47;;
35150;SDS011;55720;51.972;4.624;2023-02-17T13:24:35;16.30;;;5.00;;
35150;SDS011;55720;51.972;4.624;2023-02-17T13:27:10;13.60;;;4.68;;
35150;SDS011;55720;51.972;4.624;2023-02-17T13:29:57;14.40;;;4.25;;
35150;SDS011;55720;51.972;4.624;2023-02-17T13:32:31;11.48;;;4.00;;
35150;SDS011;55720;51.972;4.624;2023-02-17T13:35:00;13.02;;;4.03;;
35150;SDS011;55720;51.972;4.624;2023-02-17T13:42:45;9.18;;;4.28;;
35150;SDS011;55720;51.972;4.624;2023-02-17T13:50:51;11.95;;;3.70;;
35150;SDS011;55720;51.972;4.624;2023-02-17T13:53:21;14.07;;;4.10;;
35150;SDS011;55720;51.972;4.624;2023-02-17T13:55:47;10.75;;;3.65;;
35150;SDS011;55720;51.972;4.624;2023-02-17T13:58:13;19.65;;;4.18;;
35150;SDS011;55720;51.972;4.624;2023-02-17T14:00:38;19.67;;;4.38;;
35150;SDS011;55720;51.972;4.624;2023-02-17T14:03:13;16.98;;;5.05;;
35150;SDS011;55720;51.972;4.624;2023-02-17T14:05:45;10.38;;;3.97;;
35150;SDS011;55720;51.972;4.624;2023-02-17T14:11:07;14.73;;;3.70;;
35150;SDS011;55720;51.972;4.624;2023-02-17T14:13:36;12.45;;;3.65;;
35150;SDS011;55720;51.972;4.624;2023-02-17T14:16:04;12.55;;;3.42;;
35150;SDS011;55720;51.972;4.624;2023-02-17T14:18:37;17.98;;;3.97;;
35150;SDS011;55720;51.972;4.624;2023-02-17T14:21:22;16.88;;;4.35;;
35150;SDS011;55720;51.972;4.624;2023-02-17T14:23:50;21.80;;;4.40;;
35150;SDS011;55720;51.972;4.624;2023-02-17T14:29:04;12.32;;;4.00;;
35150;SDS011;55720;51.972;4.624;2023-02-17T14:31:39;19.15;;;4.32;;
35150;SDS011;55720;51.972;4.624;2023-02-17T14:34:06;14.73;;;3.30;;
35150;SDS011;55720;51.972;4.624;2023-02-17T14:36:37;16.80;;;3.38;;
35150;SDS011;55720;51.972;4.624;2023-02-17T14:39:07;15.27;;;4.13;;
35150;SDS011;55720;51.972;4.624;2023-02-17T14:41:37;17.23;;;4.03;;
35150;SDS011;55720;51.972;4.624;2023-02-17T14:44:03;23.52;;;4.15;;
35150;SDS011;55720;51.972;4.624;2023-02-17T14:46:30;19.20;;;4.50;;
35150;SDS011;55720;51.972;4.624;2023-02-17T14:48:56;13.57;;;4.20;;
35150;SDS011;55720;51.972;4.624;2023-02-17T14:51:22;18.90;;;4.32;;
35150;SDS011;55720;51.972;4.624;2023-02-17T14:53:49;21.15;;;3.83;;
35150;SDS011;55720;51.972;4.624;2023-02-17T14:58:50;18.75;;;3.95;;
35150;SDS011;55720;51.972;4.624;2023-02-17T15:01:17;18.98;;;4.03;;
35150;SDS011;55720;51.972;4.624;2023-02-17T15:03:44;18.75;;;3.50;;
35150;SDS011;55720;51.972;4.624;2023-02-17T15:06:18;17.02;;;3.90;;
35150;SDS011;55720;51.972;4.624;2023-02-17T15:08:46;9.27;;;3.83;;
35150;SDS011;55720;51.972;4.624;2023-02-17T15:14:01;14.32;;;3.22;;
35150;SDS011;55720;51.972;4.624;2023-02-17T15:16:29;21.65;;;3.88;;
35150;SDS011;55720;51.972;4.624;2023-02-17T15:18:55;22.20;;;3.65;;
35150;SDS011;55720;51.972;4.624;2023-02-17T15:21:27;12.32;;;3.30;;
35150;SDS011;55720;51.972;4.624;2023-02-17T15:23:58;13.68;;;3.58;;
35150;SDS011;55720;51.972;4.624;2023-02-17T15:26:27;18.10;;;3.33;;
35150;SDS011;55720;51.972;4.624;2023-02-17T15:28:56;11.18;;;3.08;;
35150;SDS011;55720;51.972;4.624;2023-02-17T15:31:23;17.95;;;3.95;;
35150;SDS011;55720;51.972;4.624;2023-02-17T15:33:59;20.67;;;3.97;;
35150;SDS011;55720;51.972;4.624;2023-02-17T15:36:25;22.05;;;3.58;;
35150;SDS011;55720;51.972;4.624;2023-02-17T15:38:52;20.25;;;3.35;;
35150;SDS011;55720;51.972;4.624;2023-02-17T15:41:24;13.20;;;3.65;;
35150;SDS011;55720;51.972;4.624;2023-02-17T15:43:52;17.90;;;3.58;;
35150;SDS011;55720;51.972;4.624;2023-02-17T15:46:20;15.02;;;3.88;;
35150;SDS011;55720;51.972;4.624;2023-02-17T15:48:50;12.15;;;3.08;;
35150;SDS011;55720;51.972;4.624;2023-02-17T15:51:16;13.85;;;3.20;;
35150;SDS011;55720;51.972;4.624;2023-02-17T15:53:47;16.20;;;3.10;;
35150;SDS011;55720;51.972;4.624;2023-02-17T15:58:42;14.03;;;3.20;;
35150;SDS011;55720;51.972;4.624;2023-02-17T16:01:12;19.33;;;3.33;;
35150;SDS011;55720;51.972;4.624;2023-02-17T16:03:57;12.77;;;2.92;;
35150;SDS011;55720;51.972;4.624;2023-02-17T16:06:26;14.27;;;3.05;;
35150;SDS011;55720;51.972;4.624;2023-02-17T16:08:53;19.33;;;3.60;;
35150;SDS011;55720;51.972;4.624;2023-02-17T16:11:19;16.25;;;3.47;;
35150;SDS011;55720;51.972;4.624;2023-02-17T16:13:46;19.88;;;3.63;;
35150;SDS011;55720;51.972;4.624;2023-02-17T16:16:33;13.93;;;3.20;;
35150;SDS011;55720;51.972;4.624;2023-02-17T16:18:58;14.68;;;3.38;;
35150;SDS011;55720;51.972;4.624;2023-02-17T16:21:24;17.48;;;2.70;;
35150;SDS011;55720;51.972;4.624;2023-02-17T16:23:50;20.17;;;3.38;;
35150;SDS011;55720;51.972;4.624;2023-02-17T16:26:30;17.02;;;2.97;;
35150;SDS011;55720;51.972;4.624;2023-02-17T16:28:58;18.38;;;3.30;;
35150;SDS011;55720;51.972;4.624;2023-02-17T16:31:24;17.00;;;3.15;;
35150;SDS011;55720;51.972;4.624;2023-02-17T16:33:49;16.25;;;2.78;;
35150;SDS011;55720;51.972;4.624;2023-02-17T16:36:24;14.52;;;3.10;;
35150;SDS011;55720;51.972;4.624;2023-02-17T16:38:52;11.50;;;2.67;;
35150;SDS011;55720;51.972;4.624;2023-02-17T16:41:18;14.75;;;3.00;;
35150;SDS011;55720;51.972;4.624;2023-02-17T16:43:44;17.67;;;4.20;;